Time;durP1;ratioP1;P1;durP2;ratioP2;P2;SDS_P1;SDS_P2;PMS_P1;PMS_P2;Temp;Humidity;BMP_temperature;BMP_pressure;BME280_temperature;BME280_humidity;BME280_pressure;Samples;Min_cycle;Max_cycle;Signal;HPM_P1;HPM_P2
2021/03/23 00:00:26;;;;;;;15.80;8.80;;;;;;;;;;6206516;28;20101;-73
2021/03/23 00:03:29;;;;;;;12.25;9.30;;;;;;;;;;6213211;28;20124;-73
2021/03/23 00:06:31;;;;;;;11.95;8.30;;;;;;;;;;6209567;28;20167;-74
2021/03/23 00:09:32;;;;;;;13.60;8.50;;;;;;;;;;6214526;28;20057;-73
2021/03/23 00:12:35;;;;;;;13.98;8.77;;;;;;;;;;6205785;28;20058;-74
2021/03/23 00:15:36;;;;;;;12.40;8.23;;;;;;;;;;6209906;28;20140;-74
2021/03/23 00:18:38;;;;;;;16.75;9.45;;;;;;;;;;6215712;28;20530;-74
2021/03/23 00:21:41;;;;;;;10.93;8.30;;;;;;;;;;6215829;28;20165;-73
2021/03/23 00:24:42;;;;;;;13.70;8.48;;;;;;;;;;6214591;28;20136;-73
2021/03/23 00:27:43;;;;;;;16.10;8.40;;;;;;;;;;6212405;28;20041;-73
2021/03/23 00:30:44;;;;;;;15.10;8.68;;;;;;;;;;6213506;28;20081;-73
2021/03/23 00:33:45;;;;;;;11.63;7.88;;;;;;;;;;6213742;28;20588;-73
2021/03/23 00:36:47;;;;;;;13.00;7.97;;;;;;;;;;6212854;28;20056;-75
2021/03/23 00:39:48;;;;;;;13.57;7.75;;;;;;;;;;6209230;28;20476;-74
2021/03/23 00:42:49;;;;;;;15.20;7.68;;;;;;;;;;6207603;28;20805;-69
2021/03/23 00:45:50;;;;;;;18.25;10.68;;;;;;;;;;6211395;28;20056;-74
2021/03/23 00:48:51;;;;;;;22.20;13.05;;;;;;;;;;6212661;28;20042;-70
2021/03/23 00:51:54;;;;;;;37.10;24.08;;;;;;;;;;6208007;28;20124;-73
2021/03/23 00:54:55;;;;;;;42.08;21.40;;;;;;;;;;6216242;28;20137;-71
2021/03/23 00:57:56;;;;;;;14.75;9.60;;;;;;;;;;6216826;28;20843;-79
2021/03/23 01:00:57;;;;;;;42.65;21.33;;;;;;;;;;6218914;28;20502;-72
2021/03/23 01:03:58;;;;;;;13.48;7.68;;;;;;;;;;6206046;28;21287;-73
2021/03/23 01:07:00;;;;;;;11.63;7.80;;;;;;;;;;6211246;28;20129;-73
2021/03/23 01:10:02;;;;;;;14.05;7.93;;;;;;;;;;6209316;28;20141;-73
2021/03/23 01:13:03;;;;;;;11.20;7.32;;;;;;;;;;6212415;28;20140;-73
2021/03/23 01:16:07;;;;;;;11.13;7.10;;;;;;;;;;6212085;28;20145;-73
2021/03/23 01:19:08;;;;;;;12.13;7.40;;;;;;;;;;6207675;28;20104;-73
2021/03/23 01:22:10;;;;;;;11.02;7.50;;;;;;;;;;6209083;28;20085;-73
2021/03/23 01:25:12;;;;;;;9.05;6.63;;;;;;;;;;6210450;28;20145;-74
2021/03/23 01:28:13;;;;;;;10.23;6.85;;;;;;;;;;6195782;28;20507;-73
2021/03/23 01:31:14;;;;;;;12.57;7.50;;;;;;;;;;6211737;28;20144;-73
2021/03/23 01:34:15;;;;;;;11.20;7.60;;;;;;;;;;6208751;28;20211;-73
2021/03/23 01:37:18;;;;;;;10.82;7.10;;;;;;;;;;6202882;28;20134;-73
2021/03/23 01:40:24;;;;;;;12.63;6.93;;;;;;;;;;6204980;28;20134;-73
2021/03/23 01:43:27;;;;;;;11.75;7.68;;;;;;;;;;6205628;28;20773;-73
2021/03/23 01:46:46;;;;;;;15.75;7.80;;;;;;;;;;6212372;28;20088;-73
2021/03/23 01:49:48;;;;;;;13.00;7.75;;;;;;;;;;6205471;28;20651;-72
2021/03/23 01:52:57;;;;;;;12.35;6.68;;;;;;;;;;6209550;28;20489;-73
2021/03/23 01:55:58;;;;;;;12.57;7.00;;;;;;;;;;6211579;28;20048;-72
2021/03/23 01:59:01;;;;;;;10.10;6.57;;;;;;;;;;6212047;28;20132;-73
2021/03/23 02:02:03;;;;;;;10.73;7.30;;;;;;;;;;6496546;23;20565;-66
2021/03/23 02:05:05;;;;;;;10.10;6.45;;;;;;;;;;6189765;28;20054;-67
2021/03/23 02:08:08;;;;;;;10.05;7.00;;;;;;;;;;6207934;28;20114;-66
2021/03/23 02:11:09;;;;;;;12.07;7.50;;;;;;;;;;6203164;28;20049;-66
2021/03/23 02:14:11;;;;;;;11.55;6.93;;;;;;;;;;6222033;28;20054;-67
2021/03/23 02:17:18;;;;;;;9.38;6.15;;;;;;;;;;6215111;28;20081;-69
2021/03/23 02:20:20;;;;;;;9.63;6.47;;;;;;;;;;6213248;28;20054;-69
2021/03/23 02:23:25;;;;;;;10.15;7.20;;;;;;;;;;6214834;28;20046;-69
2021/03/23 02:26:27;;;;;;;;;;;;;;;;;;6212089;28;20141;-66
2021/03/23 02:29:29;;;;;;;9.30;6.53;;;;;;;;;;6217146;28;20020;-67
2021/03/23 02:32:30;;;;;;;11.40;6.65;;;;;;;;;;6212100;28;20132;-66
2021/03/23 02:35:32;;;;;;;12.13;6.85;;;;;;;;;;6210723;28;20141;-67
2021/03/23 02:38:34;;;;;;;8.15;6.38;;;;;;;;;;6217803;28;20042;-68
2021/03/23 02:41:35;;;;;;;11.18;6.90;;;;;;;;;;6221516;28;20117;-67
2021/03/23 02:44:39;;;;;;;14.93;7.28;;;;;;;;;;6217778;28;20125;-67
2021/03/23 02:47:40;;;;;;;11.38;6.38;;;;;;;;;;6210491;28;20164;-67
2021/03/23 02:50:41;;;;;;;11.43;6.65;;;;;;;;;;6213679;28;20073;-67
2021/03/23 02:53:44;;;;;;;10.45;6.65;;;;;;;;;;6216527;28;20042;-66
2021/03/23 02:56:45;;;;;;;11.82;6.80;;;;;;;;;;6208253;28;20061;-68
2021/03/23 02:59:46;;;;;;;11.68;6.72;;;;;;;;;;6212362;28;20046;-68
2021/03/23 03:02:47;;;;;;;10.45;7.05;;;;;;;;;;6218785;28;20149;-67
2021/03/23 03:05:48;;;;;;;10.27;6.38;;;;;;;;;;6203666;28;20133;-67
2021/03/23 03:08:50;;;;;;;14.13;6.40;;;;;;;;;;6222755;28;20052;-68
2021/03/23 03:11:51;;;;;;;9.77;6.63;;;;;;;;;;6208879;28;20070;-66
2021/03/23 03:14:52;;;;;;;9.50;6.15;;;;;;;;;;6210121;28;20042;-68
2021/03/23 03:17:53;;;;;;;9.27;6.15;;;;;;;;;;6206319;28;20165;-66
2021/03/23 03:20:56;;;;;;;10.90;6.60;;;;;;;;;;6211155;28;20141;-67
2021/03/23 03:23:58;;;;;;;11.13;6.35;;;;;;;;;;6208319;28;20058;-68
2021/03/23 03:26:59;;;;;;;11.35;6.53;;;;;;;;;;6216176;28;20137;-67
2021/03/23 03:30:00;;;;;;;8.77;5.72;;;;;;;;;;6208873;28;20054;-68
2021/03/23 03:33:02;;;;;;;10.20;5.43;;;;;;;;;;6221829;28;20065;-68
2021/03/23 03:36:03;;;;;;;10.20;5.72;;;;;;;;;;6212935;28;20046;-68
2021/03/23 03:39:06;;;;;;;16.80;7.25;;;;;;;;;;6211738;28;20756;-68
2021/03/23 03:42:08;;;;;;;10.25;5.15;;;;;;;;;;6210199;28;20142;-68
2021/03/23 03:45:11;;;;;;;8.20;5.20;;;;;;;;;;6212843;28;20137;-67
2021/03/23 03:48:12;;;;;;;8.60;5.22;;;;;;;;;;6208664;28;20074;-67
2021/03/23 03:51:13;;;;;;;12.10;5.65;;;;;;;;;;6208648;28;20085;-67
2021/03/23 03:54:15;;;;;;;7.60;5.35;;;;;;;;;;6205753;28;20161;-67
2021/03/23 03:57:16;;;;;;;9.93;6.15;;;;;;;;;;6214046;28;20074;-67
2021/03/23 04:00:20;;;;;;;8.98;5.22;;;;;;;;;;6218856;28;20184;-66
2021/03/23 04:03:22;;;;;;;10.63;5.22;;;;;;;;;;6217354;28;20120;-66
2021/03/23 04:06:24;;;;;;;8.57;5.60;;;;;;;;;;6207093;28;20137;-68
2021/03/23 04:09:26;;;;;;;9.98;5.63;;;;;;;;;;6203201;28;20072;-68
2021/03/23 04:12:27;;;;;;;7.78;5.13;;;;;;;;;;6206860;28;20225;-68
2021/03/23 04:15:30;;;;;;;11.00;5.60;;;;;;;;;;6205375;28;20139;-67
2021/03/23 04:18:31;;;;;;;7.30;5.10;;;;;;;;;;6210369;28;20118;-67
2021/03/23 04:21:32;;;;;;;8.30;5.47;;;;;;;;;;6201911;28;20137;-68
2021/03/23 04:24:34;;;;;;;9.77;5.55;;;;;;;;;;6202649;28;20141;-66
2021/03/23 04:27:35;;;;;;;9.48;5.47;;;;;;;;;;6217403;28;20128;-67
2021/03/23 04:30:36;;;;;;;8.73;4.75;;;;;;;;;;6214426;28;20065;-66
2021/03/23 04:33:37;;;;;;;7.63;5.20;;;;;;;;;;6202193;28;20137;-67
2021/03/23 04:36:39;;;;;;;8.13;5.15;;;;;;;;;;6206292;28;20141;-67
2021/03/23 04:39:41;;;;;;;13.02;5.65;;;;;;;;;;6209681;28;20065;-67
2021/03/23 04:42:42;;;;;;;10.30;5.43;;;;;;;;;;6202845;28;20133;-67
2021/03/23 04:45:43;;;;;;;9.80;4.60;;;;;;;;;;6202032;28;20061;-66
2021/03/23 04:48:44;;;;;;;9.50;5.32;;;;;;;;;;6201086;28;20584;-66
2021/03/23 04:51:45;;;;;;;8.07;4.80;;;;;;;;;;6205705;28;20125;-68
2021/03/23 04:54:47;;;;;;;10.75;5.18;;;;;;;;;;6202052;28;20099;-68
2021/03/23 04:57:48;;;;;;;8.35;4.65;;;;;;;;;;6210741;28;20157;-68
2021/03/23 05:00:49;;;;;;;6.95;4.80;;;;;;;;;;6209129;28;20476;-67
2021/03/23 05:03:53;;;;;;;9.05;5.00;;;;;;;;;;6210996;28;20069;-68
2021/03/23 05:06:54;;;;;;;8.32;4.95;;;;;;;;;;6212583;28;20042;-68
2021/03/23 05:09:56;;;;;;;9.98;4.43;;;;;;;;;;6210177;28;20160;-67
2021/03/23 05:12:57;;;;;;;15.35;4.55;;;;;;;;;;6210199;28;20050;-67
2021/03/23 05:15:58;;;;;;;7.07;4.50;;;;;;;;;;6210560;28;20164;-67
2021/03/23 05:19:00;;;;;;;8.32;4.18;;;;;;;;;;6207816;28;20113;-68
2021/03/23 05:22:02;;;;;;;8.70;4.32;;;;;;;;;;6213043;28;20053;-68
2021/03/23 05:25:05;;;;;;;8.80;3.97;;;;;;;;;;6208163;28;20135;-67
2021/03/23 05:28:07;;;;;;;8.95;4.60;;;;;;;;;;6212602;28;20120;-68
2021/03/23 05:31:08;;;;;;;6.47;4.18;;;;;;;;;;6214572;28;20109;-68
2021/03/23 05:34:11;;;;;;;8.68;4.28;;;;;;;;;;6209583;28;20136;-67
2021/03/23 05:37:12;;;;;;;7.28;3.88;;;;;;;;;;6204671;28;20061;-68
2021/03/23 05:40:20;;;;;;;7.57;4.03;;;;;;;;;;6206556;28;20046;-67
2021/03/23 05:43:42;;;;;;;10.73;4.28;;;;;;;;;;6201053;28;20133;-68
2021/03/23 05:46:43;;;;;;;6.03;3.80;;;;;;;;;;6202181;28;20069;-67
2021/03/23 05:49:48;;;;;;;10.80;4.38;;;;;;;;;;6211270;28;20172;-68
2021/03/23 05:52:54;;;;;;;7.03;3.97;;;;;;;;;;6203100;28;20148;-67
2021/03/23 05:55:58;;;;;;;9.20;4.50;;;;;;;;;;6202068;28;20042;-68
2021/03/23 05:59:05;;;;;;;10.07;4.30;;;;;;;;;;6206349;28;20314;-67
2021/03/23 06:02:18;;;;;;;10.15;4.25;;;;;;;;;;6203779;28;20091;-68
2021/03/23 06:05:29;;;;;;;8.80;3.80;;;;;;;;;;6203849;28;20427;-68
2021/03/23 06:08:32;;;;;;;10.02;4.05;;;;;;;;;;6209611;28;20472;-67
2021/03/23 06:11:48;;;;;;;12.52;3.80;;;;;;;;;;6213143;28;20081;-67
2021/03/23 06:14:57;;;;;;;9.95;4.05;;;;;;;;;;6212666;28;20577;-67
2021/03/23 06:18:01;;;;;;;7.03;4.45;;;;;;;;;;6211520;28;20046;-69
2021/03/23 06:21:04;;;;;;;;;;;;;;;;;;6207068;28;20079;-68
2021/03/23 06:24:08;;;;;;;8.10;3.83;;;;;;;;;;6216420;28;19985;-70
2021/03/23 06:27:15;;;;;;;8.15;3.72;;;;;;;;;;6215981;28;20273;-69
2021/03/23 06:30:37;;;;;;;6.55;3.60;;;;;;;;;;6218354;28;20135;-69
2021/03/23 06:33:38;;;;;;;9.85;4.00;;;;;;;;;;6210328;28;20057;-68
2021/03/23 06:36:40;;;;;;;8.27;3.92;;;;;;;;;;6208819;28;20141;-69
2021/03/23 06:39:41;;;;;;;10.95;4.47;;;;;;;;;;6213587;28;20149;-68
2021/03/23 06:42:45;;;;;;;5.95;3.80;;;;;;;;;;6209538;28;20145;-68
2021/03/23 06:45:46;;;;;;;16.00;4.45;;;;;;;;;;6217160;28;20057;-69
2021/03/23 06:49:01;;;;;;;7.95;4.10;;;;;;;;;;6220200;28;20065;-68
2021/03/23 06:52:19;;;;;;;8.73;3.72;;;;;;;;;;6226478;28;20046;-69
2021/03/23 06:55:24;;;;;;;11.13;4.55;;;;;;;;;;6221588;28;20652;-68
2021/03/23 06:58:30;;;;;;;7.97;3.90;;;;;;;;;;6213312;28;20048;-68
2021/03/23 07:01:37;;;;;;;7.70;4.00;;;;;;;;;;6211324;28;20042;-68
2021/03/23 07:04:40;;;;;;;11.30;3.60;;;;;;;;;;6215752;28;20107;-68
2021/03/23 07:07:50;;;;;;;10.97;4.07;;;;;;;;;;6221222;28;20057;-69
2021/03/23 07:11:07;;;;;;;6.78;3.70;;;;;;;;;;6213582;28;20073;-69
2021/03/23 07:14:21;;;;;;;8.00;4.03;;;;;;;;;;6212701;28;20076;-68
2021/03/23 07:17:28;;;;;;;10.10;3.50;;;;;;;;;;6218510;28;20600;-71
2021/03/23 07:20:42;;;;;;;4.97;3.00;;;;;;;;;;6211193;28;20496;-69
2021/03/23 07:23:44;;;;;;;5.43;2.80;;;;;;;;;;6214622;28;20128;-68
2021/03/23 07:26:57;;;;;;;8.15;3.22;;;;;;;;;;6212416;28;20615;-69
2021/03/23 07:30:13;;;;;;;7.03;3.38;;;;;;;;;;6210275;28;20077;-69
2021/03/23 07:33:20;;;;;;;12.23;3.28;;;;;;;;;;6211911;28;20045;-69
2021/03/23 07:36:24;;;;;;;4.40;2.70;;;;;;;;;;6219930;28;20045;-69
2021/03/23 07:39:26;;;;;;;;;;;;;;;;;;6212979;28;20050;-70
2021/03/23 07:42:31;;;;;;;6.47;2.80;;;;;;;;;;6220789;28;20061;-69
2021/03/23 07:45:40;;;;;;;8.35;2.65;;;;;;;;;;6216374;28;20053;-68
2021/03/23 07:48:46;;;;;;;4.80;2.40;;;;;;;;;;6212338;28;20132;-69
2021/03/23 07:51:53;;;;;;;9.18;2.78;;;;;;;;;;6215216;28;20128;-68
2021/03/23 07:54:58;;;;;;;7.18;2.90;;;;;;;;;;6220610;28;20426;-69
2021/03/23 07:58:09;;;;;;;;;;;;;;;;;;6215209;28;20058;-68
2021/03/23 08:01:28;;;;;;;6.78;2.50;;;;;;;;;;6210548;28;20003;-70
2021/03/23 08:04:49;;;;;;;16.75;3.60;;;;;;;;;;6215623;28;20054;-70
2021/03/23 08:07:54;;;;;;;4.72;2.67;;;;;;;;;;6215871;28;20045;-69
2021/03/23 08:11:04;;;;;;;9.88;2.85;;;;;;;;;;6212994;28;20057;-70
2021/03/23 08:14:19;;;;;;;9.70;2.63;;;;;;;;;;6217828;28;20721;-70
2021/03/23 08:17:54;;;;;;;8.73;2.83;;;;;;;;;;6202545;28;20140;-70
2021/03/23 08:21:17;;;;;;;5.85;3.50;;;;;;;;;;6211641;28;20128;-70
2021/03/23 08:24:38;;;;;;;5.00;2.47;;;;;;;;;;6209548;28;20056;-70
2021/03/23 08:27:53;;;;;;;7.40;2.80;;;;;;;;;;6210037;28;20081;-70
2021/03/23 08:31:11;;;;;;;12.80;2.95;;;;;;;;;;6208550;28;20122;-70
2021/03/23 08:34:22;;;;;;;4.10;2.88;;;;;;;;;;6209637;28;20057;-69
2021/03/23 08:37:36;;;;;;;6.50;2.17;;;;;;;;;;6208345;28;20378;-72
2021/03/23 08:40:45;;;;;;;6.28;2.50;;;;;;;;;;6216679;28;20673;-68
2021/03/23 08:43:46;;;;;;;7.30;2.40;;;;;;;;;;6205797;28;20125;-70
2021/03/23 08:46:48;;;;;;;6.60;2.47;;;;;;;;;;6206622;28;20096;-70
2021/03/23 08:49:50;;;;;;;4.22;2.42;;;;;;;;;;6214864;28;20128;-69
2021/03/23 08:52:54;;;;;;;6.63;2.50;;;;;;;;;;6217193;28;20144;-70
2021/03/23 08:55:56;;;;;;;8.20;2.88;;;;;;;;;;6207515;28;20038;-70
2021/03/23 08:58:57;;;;;;;4.75;2.30;;;;;;;;;;6211012;28;20145;-70
2021/03/23 09:01:58;;;;;;;6.55;2.28;;;;;;;;;;6208935;28;20053;-70
2021/03/23 09:05:00;;;;;;;9.32;3.00;;;;;;;;;;6210187;28;20042;-70
2021/03/23 09:08:32;;;;;;;4.45;2.53;;;;;;;;;;6210864;28;20128;-71
2021/03/23 09:12:01;;;;;;;8.02;2.47;;;;;;;;;;6206722;28;20552;-71
2021/03/23 09:15:21;;;;;;;5.90;2.60;;;;;;;;;;6205601;28;20050;-70
2021/03/23 09:18:27;;;;;;;5.72;2.10;;;;;;;;;;6203093;28;20397;-68
2021/03/23 09:22:22;;;;;;;5.72;2.30;;;;;;;;;;6205164;28;20054;-70
2021/03/23 09:25:38;;;;;;;;;;;;;;;;;;6198070;28;20129;-69
2021/03/23 09:28:45;;;;;;;7.70;2.50;;;;;;;;;;6207928;28;20690;-70
2021/03/23 09:32:01;;;;;;;5.25;2.33;;;;;;;;;;6204905;28;20655;-70
2021/03/23 09:35:15;;;;;;;7.90;2.22;;;;;;;;;;6203368;28;20140;-69
2021/03/23 09:38:31;;;;;;;5.78;2.38;;;;;;;;;;6201938;28;20497;-71
2021/03/23 09:41:35;;;;;;;8.07;2.63;;;;;;;;;;6200840;28;20061;-70
2021/03/23 09:44:42;;;;;;;3.60;2.05;;;;;;;;;;6209876;28;20064;-71
2021/03/23 09:47:58;;;;;;;4.47;2.75;;;;;;;;;;6209445;28;20087;-70
2021/03/23 09:51:02;;;;;;;5.70;2.10;;;;;;;;;;6209627;28;20807;-70
2021/03/23 09:54:12;;;;;;;5.10;2.40;;;;;;;;;;6204559;28;20054;-69
2021/03/23 09:57:16;;;;;;;6.50;2.42;;;;;;;;;;6205534;28;20045;-69
2021/03/23 10:00:23;;;;;;;6.53;2.50;;;;;;;;;;6199484;28;20054;-70
2021/03/23 10:03:34;;;;;;;5.20;2.40;;;;;;;;;;6203335;28;20131;-70
2021/03/23 10:06:45;;;;;;;7.78;2.40;;;;;;;;;;6201031;28;20089;-70
2021/03/23 10:09:47;;;;;;;4.65;2.50;;;;;;;;;;6203501;28;20165;-69
2021/03/23 10:12:49;;;;;;;7.50;2.13;;;;;;;;;;6205738;28;20069;-71
2021/03/23 10:15:50;;;;;;;9.10;2.67;;;;;;;;;;6205420;28;20125;-71
2021/03/23 10:18:51;;;;;;;16.17;3.47;;;;;;;;;;6204066;28;20080;-71
2021/03/23 10:21:54;;;;;;;5.15;2.53;;;;;;;;;;6205669;28;20054;-70
2021/03/23 10:24:56;;;;;;;5.85;2.55;;;;;;;;;;6202358;28;20563;-71
2021/03/23 10:28:00;;;;;;;7.53;2.83;;;;;;;;;;6205641;28;20048;-70
2021/03/23 10:31:03;;;;;;;10.57;2.50;;;;;;;;;;6206226;28;20476;-69
2021/03/23 10:34:07;;;;;;;5.28;2.17;;;;;;;;;;6210681;28;20283;-69
2021/03/23 10:37:08;;;;;;;6.32;2.60;;;;;;;;;;6211937;28;20058;-70
2021/03/23 10:40:29;;;;;;;5.68;2.60;;;;;;;;;;6206241;28;20061;-70
2021/03/23 10:43:32;;;;;;;6.60;2.47;;;;;;;;;;6212916;28;20054;-69
2021/03/23 10:46:36;;;;;;;5.55;2.58;;;;;;;;;;6206687;28;20461;-69
2021/03/23 10:49:37;;;;;;;6.10;2.75;;;;;;;;;;6210588;28;20100;-71
2021/03/23 10:52:39;;;;;;;4.25;2.88;;;;;;;;;;6211638;28;20064;-68
2021/03/23 10:55:43;;;;;;;3.45;2.53;;;;;;;;;;6214338;28;20124;-68
2021/03/23 10:59:04;;;;;;;6.68;3.40;;;;;;;;;;6213758;28;20787;-70
2021/03/23 11:02:19;;;;;;;5.15;2.63;;;;;;;;;;6207193;28;20129;-70
2021/03/23 11:05:23;;;;;;;8.32;3.20;;;;;;;;;;6212052;28;20477;-69
2021/03/23 11:08:24;;;;;;;4.85;2.55;;;;;;;;;;6213716;28;20153;-69
2021/03/23 11:11:27;;;;;;;5.80;2.85;;;;;;;;;;6211491;28;20751;-69
2021/03/23 11:14:28;;;;;;;4.88;2.80;;;;;;;;;;6207749;28;20140;-70
2021/03/23 11:17:29;;;;;;;5.75;3.13;;;;;;;;;;6212754;28;20366;-69
2021/03/23 11:20:35;;;;;;;6.70;3.00;;;;;;;;;;6205838;28;20095;-71
2021/03/23 11:23:38;;;;;;;8.98;3.20;;;;;;;;;;6207418;28;20057;-70
2021/03/23 11:26:44;;;;;;;6.68;3.13;;;;;;;;;;6211200;28;20046;-69
2021/03/23 11:29:45;;;;;;;6.47;3.63;;;;;;;;;;6212458;28;20077;-67
2021/03/23 11:32:46;;;;;;;6.90;3.42;;;;;;;;;;6211808;28;20057;-71
2021/03/23 11:35:49;;;;;;;6.38;3.10;;;;;;;;;;6209606;28;20553;-71
2021/03/23 11:38:51;;;;;;;7.30;3.40;;;;;;;;;;6200877;28;20129;-72
2021/03/23 11:42:02;;;;;;;7.20;3.47;;;;;;;;;;6204851;28;20042;-71
2021/03/23 11:45:07;;;;;;;7.50;3.17;;;;;;;;;;6201527;28;20598;-70
2021/03/23 11:48:12;;;;;;;8.10;3.85;;;;;;;;;;6206578;28;20058;-71
2021/03/23 11:51:13;;;;;;;5.47;3.47;;;;;;;;;;6182240;28;20709;-70
2021/03/23 11:54:15;;;;;;;5.90;3.00;;;;;;;;;;6193188;28;20065;-70
2021/03/23 11:57:18;;;;;;;13.88;3.70;;;;;;;;;;6203119;28;20061;-69
2021/03/23 12:00:22;;;;;;;6.78;3.20;;;;;;;;;;6200728;28;20042;-72
2021/03/23 12:03:23;;;;;;;;;;;;;;;;;;6201701;28;20103;-69
2021/03/23 12:06:32;;;;;;;6.35;3.63;;;;;;;;;;6204536;28;20361;-69
2021/03/23 12:09:37;;;;;;;6.38;3.08;;;;;;;;;;6208673;28;20078;-71
2021/03/23 12:12:43;;;;;;;5.38;3.63;;;;;;;;;;6211091;28;20066;-70
2021/03/23 12:15:51;;;;;;;5.50;3.58;;;;;;;;;;6209277;28;20217;-69
2021/03/23 12:19:01;;;;;;;9.25;3.78;;;;;;;;;;6203461;28;20173;-70
2021/03/23 12:22:03;;;;;;;5.55;3.55;;;;;;;;;;6203520;28;20092;-70
2021/03/23 12:25:05;;;;;;;5.55;3.67;;;;;;;;;;6206383;28;20080;-70
2021/03/23 12:28:07;;;;;;;6.63;3.45;;;;;;;;;;6209401;28;20422;-69
2021/03/23 12:31:08;;;;;;;7.03;3.70;;;;;;;;;;6210752;28;20085;-70
2021/03/23 12:34:09;;;;;;;8.20;3.85;;;;;;;;;;6209236;28;20069;-69
2021/03/23 12:37:10;;;;;;;4.10;3.58;;;;;;;;;;6209014;28;20129;-70
2021/03/23 12:40:13;;;;;;;8.93;3.60;;;;;;;;;;6207516;28;20053;-70
2021/03/23 12:43:23;;;;;;;5.47;3.08;;;;;;;;;;6209427;28;20180;-71
2021/03/23 12:46:25;;;;;;;9.65;3.50;;;;;;;;;;6198035;28;20057;-70
2021/03/23 12:49:26;;;;;;;5.95;3.58;;;;;;;;;;6208915;28;20579;-71
2021/03/23 12:52:27;;;;;;;5.78;3.90;;;;;;;;;;6206960;28;20515;-68
2021/03/23 12:55:29;;;;;;;5.38;4.10;;;;;;;;;;6208253;28;20137;-69
2021/03/23 12:58:32;;;;;;;6.23;3.47;;;;;;;;;;6209334;28;20631;-67
2021/03/23 13:01:34;;;;;;;7.90;3.60;;;;;;;;;;6208103;28;20084;-69
2021/03/23 13:04:35;;;;;;;6.20;3.22;;;;;;;;;;6211257;28;20132;-68
2021/03/23 13:07:38;;;;;;;5.57;3.75;;;;;;;;;;6208901;28;20052;-70
2021/03/23 13:10:43;;;;;;;6.47;3.53;;;;;;;;;;6209573;28;20046;-68
2021/03/23 13:13:48;;;;;;;6.07;4.00;;;;;;;;;;6206868;28;20046;-69
2021/03/23 13:16:50;;;;;;;7.40;4.30;;;;;;;;;;6208721;28;20066;-68
2021/03/23 13:19:51;;;;;;;6.65;3.83;;;;;;;;;;6211054;28;20042;-67
2021/03/23 13:22:55;;;;;;;7.32;3.70;;;;;;;;;;6209826;28;20052;-69
2021/03/23 13:25:58;;;;;;;5.68;3.47;;;;;;;;;;6210617;28;20164;-70
2021/03/23 13:29:01;;;;;;;;;;;;;;;;;;6210180;28;20173;-68
2021/03/23 13:32:03;;;;;;;5.95;3.88;;;;;;;;;;6209570;28;19961;-69
2021/03/23 13:35:06;;;;;;;5.68;4.07;;;;;;;;;;6206721;28;20046;-69
2021/03/23 13:38:11;;;;;;;4.57;3.60;;;;;;;;;;6195992;28;20654;-69
2021/03/23 13:41:12;;;;;;;7.93;4.05;;;;;;;;;;6208269;28;20569;-68
2021/03/23 13:44:29;;;;;;;5.75;4.13;;;;;;;;;;6215596;28;20054;-69
2021/03/23 13:47:31;;;;;;;5.05;4.07;;;;;;;;;;6201785;28;20054;-69
2021/03/23 13:50:33;;;;;;;7.78;4.35;;;;;;;;;;6199429;28;20072;-68
2021/03/23 13:53:39;;;;;;;8.73;4.37;;;;;;;;;;6196539;28;20042;-70
2021/03/23 13:56:40;;;;;;;7.82;4.43;;;;;;;;;;6202633;28;20049;-71
2021/03/23 13:59:42;;;;;;;7.93;3.85;;;;;;;;;;6208530;28;20085;-68
2021/03/23 14:02:43;;;;;;;6.22;4.05;;;;;;;;;;6205017;28;20749;-69
2021/03/23 14:05:44;;;;;;;6.32;3.97;;;;;;;;;;6198088;28;20068;-68
2021/03/23 14:08:45;;;;;;;7.05;4.25;;;;;;;;;;6198297;28;20074;-68
2021/03/23 14:11:46;;;;;;;5.97;4.00;;;;;;;;;;6200520;28;20189;-69
2021/03/23 14:14:48;;;;;;;8.27;4.05;;;;;;;;;;6205394;28;20042;-67
2021/03/23 14:17:49;;;;;;;8.63;4.30;;;;;;;;;;6202246;28;20086;-69
2021/03/23 14:20:52;;;;;;;6.70;4.10;;;;;;;;;;6206050;28;20180;-68
2021/03/23 14:23:53;;;;;;;8.98;4.43;;;;;;;;;;6209211;28;20049;-68
2021/03/23 14:26:54;;;;;;;7.07;4.03;;;;;;;;;;6198573;28;20045;-70
2021/03/23 14:29:56;;;;;;;5.43;3.95;;;;;;;;;;6200608;28;20048;-69
2021/03/23 14:32:58;;;;;;;8.00;4.10;;;;;;;;;;6206777;28;20430;-68
2021/03/23 14:35:59;;;;;;;5.95;3.95;;;;;;;;;;6198821;28;20193;-69
2021/03/23 14:39:04;;;;;;;7.55;4.05;;;;;;;;;;6205022;28;20064;-69
2021/03/23 14:42:06;;;;;;;7.40;4.53;;;;;;;;;;6205721;28;20054;-70
2021/03/23 14:45:10;;;;;;;5.40;4.13;;;;;;;;;;6205461;28;20068;-68
2021/03/23 14:48:12;;;;;;;5.32;4.35;;;;;;;;;;6200830;28;20576;-70
2021/03/23 14:51:13;;;;;;;6.00;4.30;;;;;;;;;;6203003;28;20517;-70
2021/03/23 14:54:16;;;;;;;6.93;4.20;;;;;;;;;;6199059;28;20130;-69
2021/03/23 14:57:19;;;;;;;7.07;4.43;;;;;;;;;;6209632;28;20144;-71
2021/03/23 15:00:28;;;;;;;6.85;4.07;;;;;;;;;;6197271;28;20120;-69
2021/03/23 15:03:29;;;;;;;5.38;4.32;;;;;;;;;;6198094;28;20728;-69
2021/03/23 15:06:30;;;;;;;7.72;4.45;;;;;;;;;;6203374;28;20400;-71
2021/03/23 15:09:32;;;;;;;7.88;4.40;;;;;;;;;;6207228;28;20054;-69
2021/03/23 15:12:33;;;;;;;6.32;4.75;;;;;;;;;;6202426;28;20455;-69
2021/03/23 15:15:36;;;;;;;6.65;4.55;;;;;;;;;;6202015;28;20388;-71
2021/03/23 15:18:36;;;;;;;;;;;;;;;;;;6196610;28;20147;-69
2021/03/23 15:21:40;;;;;;;8.57;4.68;;;;;;;;;;6207841;28;19929;-70
2021/03/23 15:24:41;;;;;;;9.38;4.78;;;;;;;;;;6210880;28;20416;-68
2021/03/23 15:27:42;;;;;;;8.25;5.05;;;;;;;;;;6206423;28;20068;-69
2021/03/23 15:30:44;;;;;;;6.50;4.75;;;;;;;;;;6206989;28;20088;-70
2021/03/23 15:33:46;;;;;;;5.97;4.45;;;;;;;;;;6203716;28;20140;-70
2021/03/23 15:36:49;;;;;;;6.87;5.17;;;;;;;;;;6207672;28;20042;-70
2021/03/23 15:39:51;;;;;;;9.98;5.40;;;;;;;;;;6207916;28;20158;-70
2021/03/23 15:42:52;;;;;;;9.20;5.07;;;;;;;;;;6205659;28;20048;-69
2021/03/23 15:45:54;;;;;;;7.88;4.72;;;;;;;;;;6204542;28;20061;-70
2021/03/23 15:48:55;;;;;;;8.15;4.95;;;;;;;;;;6207005;28;20110;-68
2021/03/23 15:51:56;;;;;;;7.63;5.03;;;;;;;;;;6211688;28;20049;-69
2021/03/23 15:54:57;;;;;;;10.48;5.38;;;;;;;;;;6205176;28;20183;-69
2021/03/23 15:57:59;;;;;;;19.58;6.00;;;;;;;;;;6207752;28;20128;-71
2021/03/23 16:01:01;;;;;;;9.13;5.45;;;;;;;;;;6204573;28;20056;-68
2021/03/23 16:04:02;;;;;;;7.72;5.25;;;;;;;;;;6207637;28;20461;-71
2021/03/23 16:07:08;;;;;;;10.50;5.35;;;;;;;;;;6199919;28;20267;-70
2021/03/23 16:10:14;;;;;;;24.17;6.50;;;;;;;;;;6201176;28;20110;-71
2021/03/23 16:13:15;;;;;;;9.65;5.45;;;;;;;;;;6198634;28;20042;-71
2021/03/23 16:16:17;;;;;;;12.25;5.65;;;;;;;;;;6204025;28;20058;-69
2021/03/23 16:19:19;;;;;;;20.15;5.75;;;;;;;;;;6204117;28;20591;-69
2021/03/23 16:22:20;;;;;;;8.77;5.03;;;;;;;;;;6206091;28;20133;-69
2021/03/23 16:25:25;;;;;;;7.55;5.28;;;;;;;;;;6207726;28;20061;-70
2021/03/23 16:28:29;;;;;;;8.35;5.88;;;;;;;;;;6197912;28;20053;-71
2021/03/23 16:31:34;;;;;;;7.85;5.47;;;;;;;;;;6208016;28;20042;-70
2021/03/23 16:34:35;;;;;;;8.07;5.50;;;;;;;;;;6210880;28;20058;-68
2021/03/23 16:37:36;;;;;;;7.90;5.63;;;;;;;;;;6209273;28;20045;-70
2021/03/23 16:40:42;;;;;;;6.93;5.45;;;;;;;;;;6205413;28;20062;-70
2021/03/23 16:43:46;;;;;;;11.32;5.55;;;;;;;;;;6200648;28;20180;-69
2021/03/23 16:46:48;;;;;;;7.45;5.63;;;;;;;;;;6198291;28;20099;-69
2021/03/23 16:49:49;;;;;;;6.82;5.32;;;;;;;;;;6199219;28;20148;-71
2021/03/23 16:52:50;;;;;;;8.70;5.53;;;;;;;;;;6199277;28;20196;-70
2021/03/23 16:55:52;;;;;;;11.00;6.43;;;;;;;;;;6204835;28;20141;-70
2021/03/23 16:58:53;;;;;;;20.08;6.70;;;;;;;;;;6204040;28;20684;-70
2021/03/23 17:01:55;;;;;;;22.85;6.10;;;;;;;;;;6199340;28;20052;-70
2021/03/23 17:04:56;;;;;;;12.00;6.28;;;;;;;;;;6198313;28;20046;-71
2021/03/23 17:07:57;;;;;;;10.30;5.95;;;;;;;;;;6194936;28;20080;-69
2021/03/23 17:10:58;;;;;;;9.38;5.95;;;;;;;;;;6204543;28;20060;-71
2021/03/23 17:13:59;;;;;;;11.18;5.68;;;;;;;;;;6208629;28;20125;-69
2021/03/23 17:17:04;;;;;;;13.32;6.30;;;;;;;;;;6209746;28;20129;-69
2021/03/23 17:20:06;;;;;;;9.63;6.13;;;;;;;;;;6203950;28;20042;-69
2021/03/23 17:23:12;;;;;;;10.98;6.18;;;;;;;;;;6201356;28;20111;-68
2021/03/23 17:26:13;;;;;;;10.45;6.03;;;;;;;;;;6207134;28;20473;-69
2021/03/23 17:29:14;;;;;;;11.93;5.85;;;;;;;;;;6207953;28;20912;-68
2021/03/23 17:32:16;;;;;;;9.15;5.53;;;;;;;;;;6201027;28;20412;-69
2021/03/23 17:35:19;;;;;;;9.40;6.00;;;;;;;;;;6202944;28;20138;-69
2021/03/23 17:38:21;;;;;;;9.65;6.22;;;;;;;;;;6199928;28;20096;-72
2021/03/23 17:41:22;;;;;;;9.02;6.35;;;;;;;;;;6199088;28;20062;-69
2021/03/23 17:44:23;;;;;;;8.00;6.00;;;;;;;;;;6206735;28;20046;-70
2021/03/23 17:47:25;;;;;;;11.55;6.70;;;;;;;;;;6206923;28;20045;-70
2021/03/23 17:50:26;;;;;;;10.38;6.15;;;;;;;;;;6205026;28;20538;-73
2021/03/23 17:53:30;;;;;;;10.27;5.78;;;;;;;;;;6200656;28;21931;-72
2021/03/23 17:56:31;;;;;;;11.48;6.20;;;;;;;;;;6198942;28;20095;-71
2021/03/23 17:59:32;;;;;;;10.18;5.97;;;;;;;;;;6199909;28;20152;-72
2021/03/23 18:02:34;;;;;;;11.18;6.78;;;;;;;;;;6201489;28;20164;-71
2021/03/23 18:05:36;;;;;;;9.60;6.50;;;;;;;;;;6204929;28;20501;-71
2021/03/23 18:08:37;;;;;;;12.27;6.57;;;;;;;;;;6210481;28;21707;-71
2021/03/23 18:11:38;;;;;;;11.70;6.85;;;;;;;;;;6209467;28;20059;-71
2021/03/23 18:14:40;;;;;;;11.30;7.07;;;;;;;;;;6203246;28;20161;-71
2021/03/23 18:17:41;;;;;;;11.77;6.90;;;;;;;;;;6201188;28;20129;-71
2021/03/23 18:20:42;;;;;;;10.90;6.18;;;;;;;;;;6203598;28;20125;-71